aviador You're here:

LFKB Decoded Metar

BASTIA in CORSE ISL.
Report Time2018-01-21 06:30:00
UTC Time2018-01-21 06:53:40
Flight Rules vfr VFR
Wind300° at 11 Gusting to 23 kt
W.Decomp.*RWY 34: 8.2 kt HW 7.4 kt LCW
W.Rank300° ranks 26
Current wind is above 300° avg. (6.7)
Visibility9999 m
Phenomena:N/A
Clouds:N/A
Expected CloudBase > 4,400 ft AGL from Temp-Dew spread
CeilingNone
Temp16°C (ISA +1)
Dew Point05°C (48% RH)
AAT10.9°C
QNH1002 hPa
Density Alt659 ft
Elevation39 ft
Report Wrong Elevation
Raw Report
METAR LFKB 210630Z AUTO 30011G23KT CAVOK 16/05 Q1002 BECMG 14007KT=

Extra information for LFKB:More info

Metar Taf Metar & Taf Last 4 Metars F.Rules Stats Wind Profile Meteogram Temp Stats Airport Information Weather charts Add Link Nearby VenuesMetar ALERT Operation Metar Decoded Social comments